Aviation Digital Data Service (ADDS)

Output produced by METARs form (1631 UTC 23 February 2017)
found at http://aviationweather.gov/adds/metars/
 
KTOL 231236Z 2313/2412 23011KT P6SM BKN019 
     TEMPO 2313/2317 5SM BR BKN022 
     FM231700 27009KT P6SM BKN035 
     FM232100 33006KT P6SM BKN035 
     FM240000 05006KT 6SM BR OVC025 
     FM240400 08006KT 3SM -SHRA BR OVC012 
     FM241100 16008KT 4SM -SHRA BR OVC008